Time;durP1;ratioP1;P1;durP2;ratioP2;P2;SDS_P1;SDS_P2;PMS_P1;PMS_P2;Temp;Humidity;BMP_temperature;BMP_pressure;BME280_temperature;BME280_humidity;BME280_pressure;Samples;Min_cycle;Max_cycle;Signal;HPM_P1;HPM_P2
2022/05/18 00:00:01;;;;;;;2.80;1.20;;;;;;;6.04;46.03;100831.44;4254883;28;20320;-65
2022/05/18 00:02:27;;;;;;;3.77;1.20;;;;;;;5.95;46.41;100829.41;4244025;28;20235;-65
2022/05/18 00:04:54;;;;;;;3.40;1.33;;;;;;;5.79;46.84;100830.47;4242508;28;20310;-64
2022/05/18 00:07:21;;;;;;;2.70;1.10;;;;;;;5.79;47.07;100832.25;4239970;28;24309;-63
2022/05/18 00:09:50;;;;;;;3.00;1.20;;;;;;;5.78;47.79;100828.75;4250930;28;20237;-65
2022/05/18 00:12:18;;;;;;;2.10;1.07;;;;;;;5.75;47.78;100834.25;4240515;28;20240;-65
2022/05/18 00:14:45;;;;;;;3.93;1.10;;;;;;;5.73;47.75;100836.13;4241872;28;20299;-64
2022/05/18 00:17:11;;;;;;;4.73;0.90;;;;;;;5.72;48.59;100845.03;4239017;28;20270;-63
2022/05/18 00:19:38;;;;;;;3.07;1.00;;;;;;;5.54;49.23;100847.09;4228078;28;20606;-63
2022/05/18 00:22:05;;;;;;;1.47;0.90;;;;;;;5.60;49.05;100835.28;4231230;28;21366;-65
2022/05/18 00:24:32;;;;;;;4.50;1.20;;;;;;;5.62;49.31;100836.00;4247572;28;20300;-63
2022/05/18 00:27:00;;;;;;;7.50;1.30;;;;;;;5.64;49.17;100847.31;4249234;28;20536;-65
2022/05/18 00:29:27;;;;;;;3.97;1.30;;;;;;;5.52;50.10;100848.16;4247536;28;20459;-63
2022/05/18 00:31:54;;;;;;;2.67;1.00;;;;;;;5.47;49.78;100844.00;4243311;28;20246;-62
2022/05/18 00:34:21;;;;;;;4.17;1.20;;;;;;;5.61;49.35;100848.38;4226107;28;20410;-64
2022/05/18 00:36:48;;;;;;;3.37;1.00;;;;;;;5.50;50.13;100854.38;4228562;28;20244;-65
2022/05/18 00:39:15;;;;;;;2.37;1.10;;;;;;;5.48;49.91;100853.63;4251366;28;21644;-65
2022/05/18 00:41:41;;;;;;;4.07;1.23;;;;;;;5.41;50.31;100862.91;4250970;28;20342;-64
2022/05/18 00:44:08;;;;;;;4.60;1.33;;;;;;;5.40;50.77;100866.47;4259090;28;23614;-64
2022/05/18 00:46:34;;;;;;;4.43;0.97;;;;;;;5.35;51.07;100870.38;4259626;28;23080;-64
2022/05/18 00:49:03;;;;;;;2.07;1.10;;;;;;;5.34;51.68;100872.19;4245077;28;21152;-63
2022/05/18 00:51:36;;;;;;;2.60;1.27;;;;;;;5.19;52.34;100870.53;4247257;28;20717;-63
2022/05/18 00:54:10;;;;;;;6.23;1.50;;;;;;;5.08;52.93;100884.44;4242407;28;20710;-64
2022/05/18 00:56:42;;;;;;;11.03;2.20;;;;;;;5.10;53.21;100879.88;4237045;28;20897;-63
2022/05/18 00:59:13;;;;;;;4.27;1.33;;;;;;;5.12;53.65;100887.69;4225186;28;20244;-64
2022/05/18 01:01:39;;;;;;;7.90;1.37;;;;;;;5.04;54.36;100894.31;4249603;28;23416;-63
2022/05/18 01:04:07;;;;;;;3.93;1.33;;;;;;;4.93;54.80;100891.50;4245596;28;20235;-64
2022/05/18 01:06:45;;;;;;;3.40;1.03;;;;;;;4.83;55.62;100893.88;4237684;28;20226;-63
2022/05/18 01:09:21;;;;;;;2.17;0.90;;;;;;;4.91;55.19;100892.56;4244398;28;20251;-63
2022/05/18 01:11:48;;;;;;;3.63;1.07;;;;;;;4.92;55.56;100891.63;4223104;28;20250;-63
2022/05/18 01:14:23;;;;;;;5.03;1.27;;;;;;;4.65;56.81;100890.59;4242493;28;20238;-64
2022/05/18 01:16:51;;;;;;;3.07;1.17;;;;;;;4.52;57.66;100888.81;4241284;28;20234;-65
2022/05/18 01:19:35;;;;;;;2.43;1.10;;;;;;;4.49;58.26;100894.31;4226480;28;21033;-63
2022/05/18 01:22:35;;;;;;;3.80;1.30;;;;;;;4.53;58.16;100891.38;4242802;28;20238;-64
2022/05/18 01:25:36;;;;;;;4.20;1.33;;;;;;;4.56;58.42;100903.53;4256113;28;20311;-65
2022/05/18 01:28:03;;;;;;;4.43;1.10;;;;;;;4.68;57.60;100901.91;4234204;28;20293;-64
2022/05/18 01:30:30;;;;;;;4.13;1.30;;;;;;;4.50;57.23;100907.38;4220695;28;20237;-63
2022/05/18 01:32:58;;;;;;;2.80;1.07;;;;;;;4.51;57.92;100902.97;4234434;28;20239;-64
2022/05/18 01:35:28;;;;;;;4.00;1.30;;;;;;;4.54;57.30;100906.28;4236483;28;20273;-65
2022/05/18 01:37:57;;;;;;;6.03;1.20;;;;;;;4.33;57.38;100915.47;4225695;28;20281;-63
2022/05/18 01:41:02;;;;;;;6.00;1.40;;;;;;;4.31;57.72;100918.22;4241207;28;20262;-63
2022/05/18 01:43:36;;;;;;;2.87;1.30;;;;;;;4.30;57.61;100921.75;4241160;28;20241;-62
2022/05/18 01:46:08;;;;;;;4.50;1.57;;;;;;;4.31;57.25;100919.97;4237479;28;20223;-62
2022/05/18 01:48:40;;;;;;;3.47;1.17;;;;;;;4.27;57.66;100923.75;4235793;28;20242;-64
2022/05/18 01:51:07;;;;;;;6.07;1.33;;;;;;;4.11;58.04;100919.38;4237567;28;20230;-64
2022/05/18 01:53:34;;;;;;;5.07;1.20;;;;;;;3.97;58.88;100914.09;4220435;28;20234;-64
2022/05/18 01:56:01;;;;;;;4.23;1.10;;;;;;;4.03;58.99;100913.75;4219416;28;22430;-64
2022/05/18 01:58:28;;;;;;;6.07;1.27;;;;;;;3.91;59.67;100910.06;4241102;28;20230;-65
2022/05/18 02:00:56;;;;;;;6.70;1.40;;;;;;;3.69;60.80;100914.88;4228807;28;20296;-64
2022/05/18 02:03:23;;;;;;;2.87;1.33;;;;;;;3.71;60.78;100918.25;4238779;28;23608;-64
2022/05/18 02:05:51;;;;;;;6.10;1.47;;;;;;;3.73;60.78;100916.41;4249588;28;22027;-64
2022/05/18 02:08:18;;;;;;;5.63;1.33;;;;;;;3.63;61.37;100915.22;4217461;28;21016;-64
2022/05/18 02:10:44;;;;;;;3.80;1.60;;;;;;;3.57;61.51;100917.28;4237474;28;21027;-64
2022/05/18 02:13:11;;;;;;;4.07;1.10;;;;;;;3.47;62.22;100916.13;4224132;28;20345;-64
2022/05/18 02:15:38;;;;;;;2.07;1.20;;;;;;;3.53;62.42;100922.78;4231949;28;22095;-65
2022/05/18 02:18:05;;;;;;;4.93;1.33;;;;;;;3.57;62.50;100926.94;4241534;28;20279;-65
2022/05/18 02:20:31;;;;;;;4.47;1.50;;;;;;;3.56;62.64;100933.16;4248800;28;20301;-66
2022/05/18 02:22:58;;;;;;;3.07;1.30;;;;;;;3.43;63.25;100929.53;4228257;28;20242;-64
2022/05/18 02:25:25;;;;;;;3.17;1.50;;;;;;;3.44;63.39;100926.81;4234947;28;20249;-64
2022/05/18 02:27:52;;;;;;;5.33;1.33;;;;;;;3.44;63.36;100925.94;4235130;28;20257;-64
2022/05/18 02:30:18;;;;;;;3.03;1.40;;;;;;;3.37;64.06;100941.22;4224792;28;25597;-63
2022/05/18 02:32:45;;;;;;;3.07;1.27;;;;;;;3.35;64.32;100937.84;4230562;28;20292;-64
2022/05/18 02:35:12;;;;;;;6.23;1.73;;;;;;;3.38;64.27;100935.03;4246238;28;20227;-64
2022/05/18 02:37:38;;;;;;;4.03;1.70;;;;;;;3.36;64.35;100936.91;4233959;28;20388;-63
2022/05/18 02:40:07;;;;;;;2.87;1.40;;;;;;;3.27;64.85;100946.16;4238094;28;20226;-67
2022/05/18 02:42:34;;;;;;;4.87;1.50;;;;;;;3.17;65.82;100955.50;4234140;28;20251;-65
2022/05/18 02:45:00;;;;;;;8.43;1.63;;;;;;;3.18;65.73;100954.56;4243879;28;20233;-64
2022/05/18 02:47:27;;;;;;;15.00;1.83;;;;;;;3.23;65.85;100955.19;4237605;28;20231;-65
2022/05/18 02:49:53;;;;;;;4.57;1.87;;;;;;;3.22;65.84;100963.97;4235149;28;25033;-65
2022/05/18 02:52:20;;;;;;;7.57;1.70;;;;;;;3.29;66.06;100960.06;4251845;28;21282;-64
2022/05/18 02:57:32;;;;;;;7.70;1.77;;;;;;;3.45;65.79;100977.66;4243650;28;20756;-65
2022/05/18 02:59:59;;;;;;;4.83;1.40;;;;;;;3.43;66.31;100982.13;4230976;28;20303;-64
2022/05/18 03:02:25;;;;;;;5.13;1.77;;;;;;;3.42;66.61;100993.59;4245346;28;20231;-64
2022/05/18 03:04:52;;;;;;;5.60;1.70;;;;;;;3.51;66.60;100995.69;4246847;28;20292;-65
2022/05/18 03:07:19;;;;;;;6.40;1.77;;;;;;;3.39;67.23;100991.97;4247652;28;20497;-64
2022/05/18 03:09:45;;;;;;;4.20;1.70;;;;;;;3.42;67.52;100990.94;4249188;28;20242;-64
2022/05/18 03:12:12;;;;;;;11.57;1.97;;;;;;;3.49;67.01;100998.44;4244220;28;20238;-63
2022/05/18 03:14:39;;;;;;;7.10;1.93;;;;;;;3.53;67.17;100999.94;4228686;28;20277;-64
2022/05/18 03:17:05;;;;;;;8.53;2.00;;;;;;;3.54;66.85;101003.44;4247004;28;20230;-64
2022/05/18 03:19:32;;;;;;;7.60;2.00;;;;;;;3.58;67.27;101018.97;4256236;28;21120;-63
2022/05/18 03:24:44;;;;;;;6.37;2.13;;;;;;;3.48;68.15;101017.78;4230475;28;20238;-63
2022/05/18 03:27:10;;;;;;;5.67;2.07;;;;;;;3.61;67.82;101030.28;4242894;28;20427;-63
2022/05/18 03:29:37;;;;;;;4.50;1.73;;;;;;;3.58;67.87;101039.16;4225823;28;20242;-66
2022/05/18 03:32:04;;;;;;;8.47;2.00;;;;;;;3.60;67.93;101039.94;4238235;28;22075;-64
2022/05/18 03:34:33;;;;;;;6.87;2.10;;;;;;;3.64;67.80;101036.19;4241126;28;27062;-64
2022/05/18 03:37:00;;;;;;;6.67;2.23;;;;;;;3.70;68.14;101038.50;4246574;28;22953;-64
2022/05/18 03:39:27;;;;;;;10.43;3.03;;;;;;;3.68;68.42;101044.78;4236743;28;22749;-67
2022/05/18 03:41:53;;;;;;;9.00;3.03;;;;;;;3.69;68.57;101047.31;4239342;28;20297;-67
2022/05/18 03:44:20;;;;;;;6.93;2.33;;;;;;;3.70;68.78;101051.66;4238170;28;20412;-63
2022/05/18 03:46:47;;;;;;;6.57;2.70;;;;;;;3.61;69.25;101048.69;4237003;28;25427;-65
2022/05/18 03:49:13;;;;;;;13.07;2.97;;;;;;;3.84;68.74;101061.41;4225934;28;20230;-63
2022/05/18 03:51:40;;;;;;;8.83;2.70;;;;;;;3.95;68.53;101063.41;4235345;28;22490;-66
2022/05/18 03:54:07;;;;;;;4.17;2.00;;;;;;;4.01;67.76;101066.56;4244477;28;20264;-64
2022/05/18 03:56:34;;;;;;;9.23;2.20;;;;;;;4.07;68.17;101064.50;4244339;28;21853;-63
2022/05/18 03:59:00;;;;;;;10.27;2.90;;;;;;;4.22;67.80;101071.53;4226198;28;20356;-66
2022/05/18 04:01:27;;;;;;;12.73;3.00;;;;;;;4.31;67.51;101071.00;4237324;28;20353;-63
2022/05/18 04:03:54;;;;;;;10.47;2.60;;;;;;;4.34;67.59;101089.28;4237322;28;20239;-63
2022/05/18 04:06:22;;;;;;;8.13;2.60;;;;;;;4.44;67.89;101087.78;4239858;28;20652;-62
2022/05/18 04:08:49;;;;;;;13.33;3.03;;;;;;;4.33;67.97;101105.16;4242335;28;20499;-64
2022/05/18 04:11:16;;;;;;;7.50;2.20;;;;;;;4.53;67.07;101096.09;4224295;28;20386;-65
2022/05/18 04:13:43;;;;;;;7.83;2.30;;;;;;;4.50;68.20;101097.13;4244009;28;20254;-64
2022/05/18 04:16:10;;;;;;;10.63;3.00;;;;;;;4.72;66.60;101103.78;4246089;28;20234;-65
2022/05/18 04:18:37;;;;;;;8.27;2.10;;;;;;;4.73;67.36;101108.09;4238240;28;20322;-67
2022/05/18 04:21:04;;;;;;;10.77;3.13;;;;;;;4.75;67.13;101101.81;4235430;28;22219;-64
2022/05/18 04:23:30;;;;;;;6.90;2.20;;;;;;;4.84;67.60;101101.25;4233542;28;20296;-66
2022/05/18 04:25:57;;;;;;;10.50;2.37;;;;;;;4.98;66.84;101103.06;4245514;28;20307;-63
2022/05/18 04:28:23;;;;;;;10.00;2.97;;;;;;;4.88;67.65;101104.56;4238195;28;20538;-63
2022/05/18 04:30:50;;;;;;;5.93;2.00;;;;;;;5.18;66.98;101103.66;4240196;28;20305;-67
2022/05/18 04:33:22;;;;;;;3.97;1.80;;;;;;;5.24;66.85;101112.06;4259114;28;20233;-65
2022/05/18 04:35:50;;;;;;;8.53;1.90;;;;;;;5.28;67.11;101110.91;4241968;28;22439;-63
2022/05/18 04:38:18;;;;;;;5.47;1.60;;;;;;;5.43;66.30;101117.03;4243531;28;20277;-64
2022/05/18 04:40:51;;;;;;;4.10;1.40;;;;;;;5.57;65.85;101107.41;4222485;28;21317;-65
2022/05/18 04:43:20;;;;;;;5.13;1.37;;;;;;;5.72;65.85;101109.91;4220411;28;20316;-65
2022/05/18 04:45:46;;;;;;;7.37;1.40;;;;;;;5.76;65.20;101109.72;4243606;28;20745;-64
2022/05/18 04:48:16;;;;;;;6.53;1.50;;;;;;;5.89;64.80;101105.38;4241399;28;20244;-65
2022/05/18 04:50:43;;;;;;;4.43;1.50;;;;;;;5.85;65.14;101110.00;4230282;28;20293;-64
2022/05/18 04:53:11;;;;;;;8.77;2.00;;;;;;;5.88;64.63;101120.38;4254960;28;22252;-65
2022/05/18 04:55:38;;;;;;;5.63;1.27;;;;;;;5.85;64.82;101117.94;4245718;28;21001;-64
2022/05/18 04:58:05;;;;;;;5.63;1.50;;;;;;;5.96;64.69;101119.06;4239136;28;20238;-64
2022/05/18 05:00:32;;;;;;;6.63;1.97;;;;;;;6.02;64.67;101110.75;4220889;28;20239;-66
2022/05/18 05:02:59;;;;;;;6.67;1.83;;;;;;;6.06;64.73;101112.22;4243036;28;20309;-64
2022/05/18 05:05:26;;;;;;;5.63;1.13;;;;;;;6.21;64.25;101111.25;4238434;28;20239;-65
2022/05/18 05:07:54;;;;;;;5.20;1.70;;;;;;;6.31;64.06;101111.47;4224638;28;20241;-64
2022/05/18 05:10:21;;;;;;;6.33;1.17;;;;;;;6.47;62.82;101095.47;4234907;28;20241;-65
2022/05/18 05:12:48;;;;;;;7.97;1.83;;;;;;;6.58;61.62;101103.53;4237958;28;20304;-66
2022/05/18 05:15:15;;;;;;;6.13;1.60;;;;;;;6.64;60.55;101105.75;4242063;28;20907;-64
2022/05/18 05:17:42;;;;;;;11.17;1.80;;;;;;;6.66;61.64;101113.59;4251116;28;20238;-63
2022/05/18 05:20:10;;;;;;;4.97;1.30;;;;;;;6.77;60.35;101121.66;4246135;28;20226;-65
2022/05/18 05:22:36;;;;;;;4.27;1.50;;;;;;;6.90;59.91;101124.28;4227895;28;20239;-65
2022/05/18 05:25:03;;;;;;;6.93;1.70;;;;;;;7.03;59.34;101127.81;4240068;28;20325;-64
2022/05/18 05:27:30;;;;;;;7.07;1.27;;;;;;;7.28;59.08;101128.75;4241156;28;20327;-65
2022/05/18 05:29:56;;;;;;;5.83;1.23;;;;;;;7.45;58.25;101136.38;4258991;28;20245;-64
2022/05/18 05:32:25;;;;;;;7.73;1.30;;;;;;;7.63;56.18;101147.47;4233190;28;20326;-64
2022/05/18 05:34:52;;;;;;;7.20;1.20;;;;;;;7.91;55.82;101151.63;4244411;28;20240;-64
2022/05/18 05:37:19;;;;;;;2.80;1.10;;;;;;;8.45;52.75;101155.72;4241007;28;20235;-66
2022/05/18 05:39:46;;;;;;;5.03;1.23;;;;;;;9.15;50.66;101154.84;4246576;28;20240;-64
2022/05/18 05:42:12;;;;;;;2.00;1.10;;;;;;;9.75;48.48;101167.97;4223813;28;21548;-64
2022/05/18 05:44:39;;;;;;;5.97;1.80;;;;;;;10.41;46.52;101163.50;4241058;28;23638;-63
2022/05/18 05:47:08;;;;;;;7.93;1.17;;;;;;;11.65;43.51;101185.94;4240219;28;20404;-64
2022/05/18 05:49:34;;;;;;;5.27;1.80;;;;;;;12.97;40.05;101196.34;4233588;28;22249;-64
2022/05/18 05:52:01;;;;;;;2.67;1.30;;;;;;;14.21;37.07;101201.59;4232296;28;20233;-63
2022/05/18 05:54:28;;;;;;;3.30;1.07;;;;;;;14.90;34.73;101208.19;4236120;28;20671;-64
2022/05/18 05:56:54;;;;;;;4.60;1.60;;;;;;;15.44;32.91;101216.97;4236224;28;20237;-63
2022/05/18 05:59:21;;;;;;;4.03;1.13;;;;;;;15.68;32.50;101220.81;4239937;28;20227;-66
2022/05/18 06:01:48;;;;;;;3.33;1.30;;;;;;;17.14;30.52;101238.41;4248522;28;20235;-64
2022/05/18 06:04:17;;;;;;;5.07;1.13;;;;;;;17.18;29.57;101242.44;4237234;28;20444;-66
2022/05/18 06:06:44;;;;;;;5.87;1.50;;;;;;;17.61;29.19;101251.16;4231760;28;26254;-65
2022/05/18 06:09:11;;;;;;;4.40;1.10;;;;;;;18.98;26.88;101257.13;4242451;28;22350;-65
2022/05/18 06:11:38;;;;;;;7.97;1.90;;;;;;;19.92;25.20;101251.38;4237241;28;21619;-63
2022/05/18 06:14:05;;;;;;;3.80;0.97;;;;;;;20.69;24.32;101269.03;4225406;28;20285;-64
2022/05/18 06:16:31;;;;;;;8.03;1.60;;;;;;;21.01;23.14;101273.94;4223966;28;21909;-65
2022/05/18 06:18:59;;;;;;;11.80;1.30;;;;;;;20.12;24.39;101268.72;4239970;28;21795;-67
2022/05/18 06:21:27;;;;;;;3.83;1.23;;;;;;;22.11;22.23;101285.22;4228899;28;23498;-66
2022/05/18 06:23:54;;;;;;;4.67;1.37;;;;;;;24.10;20.19;101286.59;4225978;28;20235;-66
2022/05/18 06:26:21;;;;;;;3.90;1.03;;;;;;;24.25;18.91;101294.50;4241218;28;20237;-64
2022/05/18 06:28:49;;;;;;;6.13;1.07;;;;;;;24.54;18.98;101295.91;4244980;28;20238;-64
2022/05/18 06:31:16;;;;;;;4.43;1.07;;;;;;;24.01;18.71;101297.69;4263777;28;20242;-66
2022/05/18 06:33:43;;;;;;;4.50;1.37;;;;;;;20.93;22.33;101282.19;4247209;28;25284;-68
2022/05/18 06:36:10;;;;;;;4.30;0.97;;;;;;;23.38;19.72;101295.44;4256690;28;21158;-66
2022/05/18 06:38:37;;;;;;;5.33;1.10;;;;;;;22.09;21.16;101298.13;4242757;28;20297;-65
2022/05/18 06:41:22;;;;;;;7.63;1.40;;;;;;;21.17;22.28;101288.25;4230259;28;20265;-62
2022/05/18 06:43:57;;;;;;;13.73;1.40;;;;;;;21.68;21.81;101293.47;4250945;28;20345;-65
2022/05/18 06:46:25;;;;;;;10.77;1.30;;;;;;;23.09;20.92;101298.56;4237951;28;21638;-69
2022/05/18 06:48:53;;;;;;;4.00;1.30;;;;;;;24.66;18.44;101299.59;4251570;28;21418;-68
2022/05/18 06:51:22;;;;;;;8.73;1.57;;;;;;;24.16;19.02;101299.34;4266075;28;20242;-66
2022/05/18 06:53:51;;;;;;;4.90;1.30;;;;;;;23.18;18.69;101298.16;4232934;28;21508;-65
2022/05/18 06:56:23;;;;;;;9.50;1.37;;;;;;;23.75;18.48;101301.31;4217241;28;21565;-67
2022/05/18 06:58:51;;;;;;;6.87;1.70;;;;;;;23.91;18.34;101302.75;4253012;28;21224;-64
2022/05/18 07:01:18;;;;;;;12.07;2.83;;;;;;;25.61;16.92;101318.66;4251602;28;22873;-66
2022/05/18 07:03:46;;;;;;;8.37;1.87;;;;;;;25.25;17.15;101320.19;4238619;28;21537;-63
2022/05/18 07:06:14;;;;;;;10.10;1.77;;;;;;;24.08;18.43;101310.47;4248393;28;20319;-66
2022/05/18 07:08:41;;;;;;;9.77;1.70;;;;;;;24.19;18.22;101324.22;4242482;28;22220;-66
2022/05/18 07:11:07;;;;;;;11.17;1.80;;;;;;;23.73;19.11;101316.13;4243567;28;21751;-65
2022/05/18 07:13:35;;;;;;;12.23;1.33;;;;;;;24.69;17.73;101329.09;4252985;28;20231;-67
2022/05/18 07:16:02;;;;;;;6.33;1.77;;;;;;;24.91;17.01;101335.06;4272244;28;20230;-65
2022/05/18 07:18:31;;;;;;;5.40;1.23;;;;;;;21.27;20.86;101318.53;4250199;28;21199;-65
2022/05/18 07:20:58;;;;;;;7.30;1.00;;;;;;;21.27;21.70;101310.41;4261130;28;20231;-67
2022/05/18 07:23:26;;;;;;;6.00;1.30;;;;;;;20.81;21.68;101300.81;4270802;28;20354;-67
2022/05/18 07:25:54;;;;;;;11.97;1.10;;;;;;;21.53;20.79;101315.25;4266580;28;20273;-67
2022/05/18 07:28:21;;;;;;;10.67;1.20;;;;;;;21.55;21.47;101306.94;4258025;28;20260;-65
2022/05/18 07:30:49;;;;;;;8.90;1.53;;;;;;;21.08;21.72;101307.31;4265635;28;20241;-67
2022/05/18 07:33:17;;;;;;;8.57;1.00;;;;;;;19.37;23.10;101291.25;4297898;28;20268;-67
2022/05/18 07:35:44;;;;;;;6.93;1.10;;;;;;;18.00;24.90;101282.69;4264174;28;20762;-68
2022/05/18 07:38:11;;;;;;;5.27;0.90;;;;;;;17.45;26.13;101284.28;4256980;28;20494;-68
2022/05/18 07:40:59;;;;;;;7.43;1.10;;;;;;;16.51;27.45;101273.91;4257662;28;22500;-67
2022/05/18 07:43:26;;;;;;;6.73;1.20;;;;;;;15.87;27.88;101268.91;4289978;28;22350;-69
2022/05/18 07:45:56;;;;;;;3.33;0.80;;;;;;;15.59;28.90;101262.81;4253269;28;20657;-66
2022/05/18 07:48:24;;;;;;;5.57;0.80;;;;;;;15.68;29.30;101266.41;4248629;28;21150;-67
2022/05/18 07:50:51;;;;;;;2.67;0.97;;;;;;;16.11;28.87;101264.66;4256581;28;21147;-69
2022/05/18 07:53:18;;;;;;;8.33;1.00;;;;;;;16.24;27.87;101267.75;4251772;28;21314;-71
2022/05/18 07:55:46;;;;;;;4.33;0.80;;;;;;;16.48;27.77;101269.69;4255199;28;20247;-66
2022/05/18 07:58:14;;;;;;;7.00;1.53;;;;;;;16.33;27.69;101266.78;4257605;28;21578;-69
2022/05/18 08:00:41;;;;;;;5.33;1.00;;;;;;;16.10;28.90;101266.50;4279426;28;20243;-68
2022/05/18 08:03:09;;;;;;;7.47;1.10;;;;;;;15.92;29.10;101263.94;4265933;28;20245;-67
2022/05/18 08:05:36;;;;;;;5.63;1.23;;;;;;;16.58;28.19;101266.88;4264264;28;20286;-65
2022/05/18 08:08:10;;;;;;;5.20;0.87;;;;;;;16.91;27.28;101265.13;4264239;28;20776;-65
2022/05/18 08:16:09;;;;;;;4.83;0.80;;;;;;;17.25;26.37;101256.88;4261662;28;20304;-67
2022/05/18 08:18:38;;;;;;;4.77;1.03;;;;;;;17.11;26.71;101260.25;4273483;28;20273;-68
2022/05/18 08:21:05;;;;;;;3.03;0.80;;;;;;;17.07;27.02;101261.63;4237270;28;20459;-67
2022/05/18 08:23:31;;;;;;;5.07;0.80;;;;;;;16.86;27.61;101260.25;4249124;28;20292;-67
2022/05/18 08:25:58;;;;;;;2.93;0.77;;;;;;;16.10;28.12;101249.56;4255839;28;20231;-68
2022/05/18 08:28:26;;;;;;;6.93;1.03;;;;;;;16.65;28.05;101259.84;4251334;28;20304;-67
2022/05/18 08:30:54;;;;;;;2.33;0.80;;;;;;;17.03;26.39;101262.94;4242481;28;21367;-67
2022/05/18 08:33:22;;;;;;;2.47;0.70;;;;;;;16.41;26.58;101248.03;4254984;28;20245;-68
2022/05/18 08:35:49;;;;;;;2.73;0.70;;;;;;;16.15;27.65;101241.88;4255316;28;20227;-67
2022/05/18 08:38:16;;;;;;;5.03;0.80;;;;;;;15.46;29.05;101241.81;4257302;28;20613;-68
2022/05/18 08:40:51;;;;;;;7.17;1.20;;;;;;;15.73;27.26;101246.22;4245130;28;20231;-67
2022/05/18 08:43:29;;;;;;;1.80;0.57;;;;;;;16.06;27.47;101250.88;4270564;28;23407;-68
2022/05/18 08:46:05;;;;;;;2.57;1.00;;;;;;;16.14;28.70;101246.41;4253859;28;22326;-67
2022/05/18 08:49:00;;;;;;;3.77;0.63;;;;;;;15.86;28.87;101251.13;4277510;28;20263;-68
2022/05/18 08:51:45;;;;;;;4.60;0.90;;;;;;;15.71;29.11;101250.03;4254498;28;20238;-68
2022/05/18 08:54:23;;;;;;;4.20;0.77;;;;;;;15.64;29.12;101244.44;4266922;28;20417;-65
2022/05/18 08:56:52;;;;;;;1.50;0.90;;;;;;;16.16;27.79;101251.63;4246397;28;23014;-67
2022/05/18 08:59:22;;;;;;;9.83;1.00;;;;;;;15.45;30.08;101245.47;4276231;28;20230;-65
2022/05/18 09:01:51;;;;;;;2.43;0.60;;;;;;;15.81;29.27;101253.47;4287111;28;20242;-67
2022/05/18 09:04:23;;;;;;;5.87;1.00;;;;;;;15.62;29.07;101252.63;4260566;28;20652;-68
2022/05/18 09:06:54;;;;;;;4.37;1.20;;;;;;;15.18;29.72;101236.56;4244262;28;25302;-67
2022/05/18 09:12:15;;;;;;;3.63;1.20;;;;;;;15.22;30.04;101238.91;4277122;28;20306;-68
2022/05/18 09:14:43;;;;;;;4.10;1.00;;;;;;;14.93;31.47;101230.13;4258372;28;20404;-66
2022/05/18 09:17:40;;;;;;;4.00;0.83;;;;;;;15.15;31.10;101234.19;4231719;28;26243;-66
2022/05/18 09:20:21;;;;;;;4.57;0.80;;;;;;;15.41;29.87;101231.53;4255433;28;20627;-67
2022/05/18 09:22:47;;;;;;;2.43;0.97;;;;;;;15.83;29.86;101238.03;4234170;28;22535;-68
2022/05/18 09:25:29;;;;;;;2.60;0.60;;;;;;;15.65;27.56;101237.22;4253848;28;22944;-69
2022/05/18 09:28:42;;;;;;;2.73;0.60;;;;;;;14.95;28.46;101232.69;4257372;28;20318;-66
2022/05/18 09:31:50;;;;;;;3.87;0.73;;;;;;;14.62;29.21;101227.00;4261303;28;20339;-68
2022/05/18 09:34:44;;;;;;;2.83;0.60;;;;;;;15.34;29.07;101230.50;4216979;28;20357;-68
2022/05/18 09:37:27;;;;;;;5.33;1.20;;;;;;;15.15;29.13;101230.69;4207266;28;20752;-67
2022/05/18 09:40:02;;;;;;;4.43;1.07;;;;;;;14.95;29.68;101227.31;4233721;28;21698;-66
2022/05/18 09:42:33;;;;;;;3.77;0.80;;;;;;;15.33;28.79;101225.28;4248158;28;20695;-68
2022/05/18 09:45:08;;;;;;;2.93;0.77;;;;;;;15.13;28.29;101230.00;4261776;28;20632;-67
2022/05/18 09:48:02;;;;;;;3.57;0.80;;;;;;;15.38;28.27;101229.19;4258398;28;21169;-66
2022/05/18 09:50:29;;;;;;;3.77;0.80;;;;;;;15.38;28.48;101233.69;4257100;28;20405;-68
2022/05/18 09:52:56;;;;;;;4.77;0.60;;;;;;;15.36;26.51;101236.53;4247334;28;22873;-71
2022/05/18 09:55:25;;;;;;;2.37;0.80;;;;;;;15.34;27.86;101232.34;4270468;28;22334;-73
2022/05/18 09:58:15;;;;;;;3.40;0.80;;;;;;;15.37;28.13;101227.47;4264644;28;20235;-68
2022/05/18 10:00:42;;;;;;;1.33;0.53;;;;;;;15.53;26.21;101226.75;4243595;28;20238;-55
2022/05/18 10:08:53;;;;;;;2.80;0.70;;;;;;;15.36;27.58;101224.97;4262016;28;21032;-67
2022/05/18 10:11:24;;;;;;;1.70;0.70;;;;;;;15.13;27.70;101222.78;4238596;28;20244;-69
2022/05/18 10:14:17;;;;;;;5.53;0.80;;;;;;;14.94;26.94;101217.59;4248952;28;20445;-65
2022/05/18 10:16:59;;;;;;;2.60;0.70;;;;;;;15.25;27.94;101214.50;4229245;28;20227;-66
2022/05/18 10:19:50;;;;;;;8.63;0.67;;;;;;;15.54;27.93;101217.69;4252650;28;20236;-67
2022/05/18 10:22:23;;;;;;;3.20;0.60;;;;;;;15.55;27.34;101223.94;4267281;28;20526;-68
2022/05/18 10:25:04;;;;;;;1.50;0.70;;;;;;;15.19;28.20;101207.91;4242008;28;20230;-72
2022/05/18 10:27:39;;;;;;;3.20;0.70;;;;;;;15.37;28.25;101207.88;4248621;28;20352;-69
2022/05/18 10:30:16;;;;;;;4.37;0.80;;;;;;;15.49;27.33;101203.91;4262928;28;20232;-69
2022/05/18 10:33:02;;;;;;;5.40;0.73;;;;;;;15.15;28.62;101203.88;4244473;28;24612;-71
2022/05/18 10:35:48;;;;;;;2.90;0.73;;;;;;;15.50;30.45;101197.56;4249916;28;20231;-71
2022/05/18 10:38:24;;;;;;;4.10;0.80;;;;;;;15.77;28.17;101196.56;4238915;28;20332;-68
2022/05/18 10:41:03;;;;;;;3.77;0.90;;;;;;;15.97;27.83;101201.72;4257112;28;21337;-65
2022/05/18 10:43:39;;;;;;;3.40;0.83;;;;;;;16.12;27.15;101205.44;4248484;28;20234;-70
2022/05/18 10:46:28;;;;;;;2.70;1.13;;;;;;;16.02;27.50;101200.19;4233954;28;20230;-68
2022/05/18 10:49:18;;;;;;;2.63;0.70;;;;;;;16.11;26.38;101202.91;4231967;28;20312;-66
2022/05/18 10:51:45;;;;;;;3.23;0.70;;;;;;;15.91;24.10;101205.03;4243944;28;20233;-67
2022/05/18 10:54:25;;;;;;;1.80;0.83;;;;;;;16.00;24.58;101206.75;4259582;28;20288;-67
2022/05/18 10:56:53;;;;;;;1.63;0.47;;;;;;;16.13;24.46;101207.13;4242526;28;21040;-67
2022/05/18 10:59:25;;;;;;;4.00;0.70;;;;;;;16.40;25.67;101200.66;4220963;28;21141;-68
2022/05/18 11:01:58;;;;;;;3.30;0.77;;;;;;;16.67;25.42;101196.84;4252773;28;20227;-67
2022/05/18 11:04:44;;;;;;;4.57;0.83;;;;;;;16.70;25.89;101198.38;4245197;28;20254;-68
2022/05/18 11:07:10;;;;;;;1.77;0.63;;;;;;;16.46;25.58;101191.13;4230364;28;20252;-68
2022/05/18 11:09:41;;;;;;;3.83;0.70;;;;;;;16.29;26.04;101184.84;4252940;28;20238;-68
2022/05/18 11:12:29;;;;;;;2.33;0.80;;;;;;;15.75;26.25;101187.81;4245084;28;20231;-77
2022/05/18 11:14:58;;;;;;;2.20;0.80;;;;;;;16.08;26.44;101184.44;4244969;28;20272;-67
2022/05/18 11:17:46;;;;;;;4.40;0.80;;;;;;;16.31;25.46;101184.69;4230423;28;20305;-68
2022/05/18 11:20:27;;;;;;;4.97;0.70;;;;;;;16.47;25.15;101187.41;4235920;28;22293;-69
2022/05/18 11:23:21;;;;;;;3.60;0.83;;;;;;;16.72;24.03;101185.59;4265822;28;25646;-68
2022/05/18 11:26:09;;;;;;;1.03;0.60;;;;;;;16.74;23.80;101180.91;4231514;28;20259;-68
2022/05/18 11:29:01;;;;;;;4.83;0.60;;;;;;;16.98;25.24;101179.25;4249315;28;20238;-67
2022/05/18 11:32:05;;;;;;;3.13;0.63;;;;;;;16.60;24.47;101182.41;4236345;28;20278;-70
2022/05/18 11:34:43;;;;;;;2.43;0.70;;;;;;;16.68;24.48;101179.72;4255332;28;20402;-67
2022/05/18 11:37:34;;;;;;;3.10;1.00;;;;;;;17.02;26.08;101175.19;4295657;28;22260;-67
2022/05/18 11:40:53;;;;;;;5.90;1.90;;;;;;;17.33;24.59;101177.22;4241682;28;20684;-68
2022/05/18 11:43:25;;;;;;;2.30;0.70;;;;;;;17.19;24.12;101176.88;4247629;28;20239;-68
2022/05/18 11:46:12;;;;;;;3.03;0.80;;;;;;;17.36;23.75;101168.78;4247014;28;20632;-69
2022/05/18 11:48:47;;;;;;;1.30;0.73;;;;;;;17.27;24.12;101171.47;4257339;28;20237;-69
2022/05/18 11:51:34;;;;;;;2.07;0.77;;;;;;;17.73;22.63;101173.56;4251017;28;20281;-67
2022/05/18 11:54:07;;;;;;;3.57;0.57;;;;;;;17.75;21.08;101176.06;4257368;28;20316;-67
2022/05/18 11:56:51;;;;;;;1.53;0.80;;;;;;;18.01;22.22;101173.97;4236888;28;20281;-67
2022/05/18 11:59:37;;;;;;;6.87;0.60;;;;;;;18.25;22.74;101177.56;4248572;28;20304;-68
2022/05/18 12:02:14;;;;;;;8.80;1.00;;;;;;;17.72;23.44;101178.09;4257046;28;20282;-68
2022/05/18 12:05:15;;;;;;;5.23;0.97;;;;;;;17.61;24.23;101170.41;4227921;28;20427;-67
2022/05/18 12:07:49;;;;;;;6.13;0.63;;;;;;;17.36;24.07;101158.03;4248578;28;20935;-68